sensor_id;sensor_type;location;lat;lon;timestamp;P1;durP1;ratioP1;P2;durP2;ratioP2
17949;SDS011;9100;48.700;9.316;2023-04-15T00:00:23;8.2;;;4.7;;
17949;SDS011;9100;48.700;9.316;2023-04-15T00:01:22;8.2;;;4.7;;
17949;SDS011;9100;48.700;9.316;2023-04-15T00:02:22;8.2;;;4.7;;
17949;SDS011;9100;48.700;9.316;2023-04-15T00:02:49;6.5;;;4.4;;
17949;SDS011;9100;48.700;9.316;2023-04-15T00:03:23;6.5;;;4.4;;
17949;SDS011;9100;48.700;9.316;2023-04-15T00:04:23;6.5;;;4.4;;
17949;SDS011;9100;48.700;9.316;2023-04-15T00:05:23;6.5;;;4.4;;
17949;SDS011;9100;48.700;9.316;2023-04-15T00:06:23;6.5;;;4.4;;
17949;SDS011;9100;48.700;9.316;2023-04-15T00:07:22;6.5;;;4.4;;
17949;SDS011;9100;48.700;9.316;2023-04-15T00:07:49;5.4;;;4.3;;
17949;SDS011;9100;48.700;9.316;2023-04-15T00:08:22;5.4;;;4.3;;
17949;SDS011;9100;48.700;9.316;2023-04-15T00:09:22;5.4;;;4.3;;
17949;SDS011;9100;48.700;9.316;2023-04-15T00:10:22;5.4;;;4.3;;
17949;SDS011;9100;48.700;9.316;2023-04-15T00:11:22;5.4;;;4.3;;
17949;SDS011;9100;48.700;9.316;2023-04-15T00:12:22;5.4;;;4.3;;
17949;SDS011;9100;48.700;9.316;2023-04-15T00:12:50;10.6;;;4.5;;
17949;SDS011;9100;48.700;9.316;2023-04-15T00:13:22;10.6;;;4.5;;
17949;SDS011;9100;48.700;9.316;2023-04-15T00:14:22;10.6;;;4.5;;
17949;SDS011;9100;48.700;9.316;2023-04-15T00:15:23;10.6;;;4.5;;
17949;SDS011;9100;48.700;9.316;2023-04-15T00:16:23;10.6;;;4.5;;
17949;SDS011;9100;48.700;9.316;2023-04-15T00:17:23;10.6;;;4.5;;
17949;SDS011;9100;48.700;9.316;2023-04-15T00:17:50;4.9;;;4.2;;
17949;SDS011;9100;48.700;9.316;2023-04-15T00:18:23;4.9;;;4.2;;
17949;SDS011;9100;48.700;9.316;2023-04-15T00:19:23;4.9;;;4.2;;
17949;SDS011;9100;48.700;9.316;2023-04-15T00:20:23;4.9;;;4.2;;
17949;SDS011;9100;48.700;9.316;2023-04-15T00:21:22;4.9;;;4.2;;
17949;SDS011;9100;48.700;9.316;2023-04-15T00:22:22;4.9;;;4.2;;
17949;SDS011;9100;48.700;9.316;2023-04-15T00:22:50;3.6;;;3.3;;
17949;SDS011;9100;48.700;9.316;2023-04-15T00:23:23;3.6;;;3.3;;
17949;SDS011;9100;48.700;9.316;2023-04-15T00:24:23;3.6;;;3.3;;
17949;SDS011;9100;48.700;9.316;2023-04-15T00:25:22;3.6;;;3.3;;
17949;SDS011;9100;48.700;9.316;2023-04-15T00:26:22;3.6;;;3.3;;
17949;SDS011;9100;48.700;9.316;2023-04-15T00:27:22;3.6;;;3.3;;
17949;SDS011;9100;48.700;9.316;2023-04-15T00:27:49;4.8;;;3.6;;
17949;SDS011;9100;48.700;9.316;2023-04-15T00:28:22;4.8;;;3.6;;
17949;SDS011;9100;48.700;9.316;2023-04-15T00:29:22;4.8;;;3.6;;
17949;SDS011;9100;48.700;9.316;2023-04-15T00:30:22;4.8;;;3.6;;
17949;SDS011;9100;48.700;9.316;2023-04-15T00:31:23;4.8;;;3.6;;
17949;SDS011;9100;48.700;9.316;2023-04-15T00:32:23;4.8;;;3.6;;
17949;SDS011;9100;48.700;9.316;2023-04-15T00:32:50;5.6;;;4.3;;
17949;SDS011;9100;48.700;9.316;2023-04-15T00:33:23;5.6;;;4.3;;
17949;SDS011;9100;48.700;9.316;2023-04-15T00:34:23;5.6;;;4.3;;
17949;SDS011;9100;48.700;9.316;2023-04-15T00:35:23;5.6;;;4.3;;
17949;SDS011;9100;48.700;9.316;2023-04-15T00:36:23;5.6;;;4.3;;
17949;SDS011;9100;48.700;9.316;2023-04-15T00:37:23;5.6;;;4.3;;
17949;SDS011;9100;48.700;9.316;2023-04-15T00:37:49;5;;;4.3;;
17949;SDS011;9100;48.700;9.316;2023-04-15T00:38:22;5;;;4.3;;
17949;SDS011;9100;48.700;9.316;2023-04-15T00:39:22;5;;;4.3;;
17949;SDS011;9100;48.700;9.316;2023-04-15T00:40:23;5;;;4.3;;
17949;SDS011;9100;48.700;9.316;2023-04-15T00:41:22;5;;;4.3;;
17949;SDS011;9100;48.700;9.316;2023-04-15T00:42:22;5;;;4.3;;
17949;SDS011;9100;48.700;9.316;2023-04-15T00:42:50;7.4;;;4.1;;
17949;SDS011;9100;48.700;9.316;2023-04-15T00:43:22;7.4;;;4.1;;
17949;SDS011;9100;48.700;9.316;2023-04-15T00:44:22;7.4;;;4.1;;
17949;SDS011;9100;48.700;9.316;2023-04-15T00:45:22;7.4;;;4.1;;
17949;SDS011;9100;48.700;9.316;2023-04-15T00:46:22;7.4;;;4.1;;
17949;SDS011;9100;48.700;9.316;2023-04-15T00:47:23;7.4;;;4.1;;
17949;SDS011;9100;48.700;9.316;2023-04-15T00:47:49;3.7;;;3.4;;
17949;SDS011;9100;48.700;9.316;2023-04-15T00:48:23;3.7;;;3.4;;
17949;SDS011;9100;48.700;9.316;2023-04-15T00:49:23;3.7;;;3.4;;
17949;SDS011;9100;48.700;9.316;2023-04-15T00:50:22;3.7;;;3.4;;
17949;SDS011;9100;48.700;9.316;2023-04-15T00:51:22;3.7;;;3.4;;
17949;SDS011;9100;48.700;9.316;2023-04-15T00:52:22;3.7;;;3.4;;
17949;SDS011;9100;48.700;9.316;2023-04-15T00:52:49;4.5;;;3.3;;
17949;SDS011;9100;48.700;9.316;2023-04-15T00:53:23;4.5;;;3.3;;
17949;SDS011;9100;48.700;9.316;2023-04-15T00:54:22;4.5;;;3.3;;
17949;SDS011;9100;48.700;9.316;2023-04-15T00:55:22;4.5;;;3.3;;
17949;SDS011;9100;48.700;9.316;2023-04-15T00:56:23;4.5;;;3.3;;
17949;SDS011;9100;48.700;9.316;2023-04-15T00:57:23;4.5;;;3.3;;
17949;SDS011;9100;48.700;9.316;2023-04-15T00:57:50;4.6;;;3.5;;
17949;SDS011;9100;48.700;9.316;2023-04-15T00:58:23;4.6;;;3.5;;
17949;SDS011;9100;48.700;9.316;2023-04-15T00:59:23;4.6;;;3.5;;
17949;SDS011;9100;48.700;9.316;2023-04-15T01:00:23;4.6;;;3.5;;
17949;SDS011;9100;48.700;9.316;2023-04-15T01:01:23;4.6;;;3.5;;
17949;SDS011;9100;48.700;9.316;2023-04-15T01:02:23;4.6;;;3.5;;
17949;SDS011;9100;48.700;9.316;2023-04-15T01:02:50;4.9;;;4;;
17949;SDS011;9100;48.700;9.316;2023-04-15T01:03:22;4.9;;;4;;
17949;SDS011;9100;48.700;9.316;2023-04-15T01:04:23;4.9;;;4;;
17949;SDS011;9100;48.700;9.316;2023-04-15T01:05:22;4.9;;;4;;
17949;SDS011;9100;48.700;9.316;2023-04-15T01:06:23;4.9;;;4;;
17949;SDS011;9100;48.700;9.316;2023-04-15T01:07:22;4.9;;;4;;
17949;SDS011;9100;48.700;9.316;2023-04-15T01:07:49;3.7;;;3.4;;
17949;SDS011;9100;48.700;9.316;2023-04-15T01:08:25;3.7;;;3.4;;
17949;SDS011;9100;48.700;9.316;2023-04-15T01:09:23;3.7;;;3.4;;
17949;SDS011;9100;48.700;9.316;2023-04-15T01:10:23;3.7;;;3.4;;
17949;SDS011;9100;48.700;9.316;2023-04-15T01:11:23;3.7;;;3.4;;
17949;SDS011;9100;48.700;9.316;2023-04-15T01:12:23;3.7;;;3.4;;
17949;SDS011;9100;48.700;9.316;2023-04-15T01:12:49;4.5;;;3.6;;
17949;SDS011;9100;48.700;9.316;2023-04-15T01:13:23;4.5;;;3.6;;
17949;SDS011;9100;48.700;9.316;2023-04-15T01:14:23;4.5;;;3.6;;
17949;SDS011;9100;48.700;9.316;2023-04-15T01:15:22;4.5;;;3.6;;
17949;SDS011;9100;48.700;9.316;2023-04-15T01:16:23;4.5;;;3.6;;
17949;SDS011;9100;48.700;9.316;2023-04-15T01:17:23;4.5;;;3.6;;
17949;SDS011;9100;48.700;9.316;2023-04-15T01:17:49;5.3;;;3.7;;
17949;SDS011;9100;48.700;9.316;2023-04-15T01:18:23;5.3;;;3.7;;
17949;SDS011;9100;48.700;9.316;2023-04-15T01:19:22;5.3;;;3.7;;
17949;SDS011;9100;48.700;9.316;2023-04-15T01:20:23;5.3;;;3.7;;
17949;SDS011;9100;48.700;9.316;2023-04-15T01:21:22;5.3;;;3.7;;
17949;SDS011;9100;48.700;9.316;2023-04-15T01:22:23;5.3;;;3.7;;
17949;SDS011;9100;48.700;9.316;2023-04-15T01:22:49;5.7;;;3.4;;
17949;SDS011;9100;48.700;9.316;2023-04-15T01:23:23;5.7;;;3.4;;
17949;SDS011;9100;48.700;9.316;2023-04-15T01:24:23;5.7;;;3.4;;
17949;SDS011;9100;48.700;9.316;2023-04-15T01:25:27;5.7;;;3.4;;
17949;SDS011;9100;48.700;9.316;2023-04-15T01:26:23;5.7;;;3.4;;
17949;SDS011;9100;48.700;9.316;2023-04-15T01:27:23;5.7;;;3.4;;
17949;SDS011;9100;48.700;9.316;2023-04-15T01:27:49;4.9;;;3.5;;
17949;SDS011;9100;48.700;9.316;2023-04-15T01:28:23;4.9;;;3.5;;
17949;SDS011;9100;48.700;9.316;2023-04-15T01:29:23;4.9;;;3.5;;
17949;SDS011;9100;48.700;9.316;2023-04-15T01:30:22;4.9;;;3.5;;
17949;SDS011;9100;48.700;9.316;2023-04-15T01:31:23;4.9;;;3.5;;
17949;SDS011;9100;48.700;9.316;2023-04-15T01:32:23;4.9;;;3.5;;
17949;SDS011;9100;48.700;9.316;2023-04-15T01:32:49;3.9;;;3.1;;
17949;SDS011;9100;48.700;9.316;2023-04-15T01:33:23;3.9;;;3.1;;
17949;SDS011;9100;48.700;9.316;2023-04-15T01:34:23;3.9;;;3.1;;
17949;SDS011;9100;48.700;9.316;2023-04-15T01:35:23;3.9;;;3.1;;
17949;SDS011;9100;48.700;9.316;2023-04-15T01:36:23;3.9;;;3.1;;
17949;SDS011;9100;48.700;9.316;2023-04-15T01:37:23;3.9;;;3.1;;
17949;SDS011;9100;48.700;9.316;2023-04-15T01:37:49;5.9;;;3.4;;
17949;SDS011;9100;48.700;9.316;2023-04-15T01:38:24;5.9;;;3.4;;
17949;SDS011;9100;48.700;9.316;2023-04-15T01:39:23;5.9;;;3.4;;
17949;SDS011;9100;48.700;9.316;2023-04-15T01:40:23;5.9;;;3.4;;
17949;SDS011;9100;48.700;9.316;2023-04-15T01:41:24;5.9;;;3.4;;
17949;SDS011;9100;48.700;9.316;2023-04-15T01:42:23;5.9;;;3.4;;
17949;SDS011;9100;48.700;9.316;2023-04-15T01:42:49;9;;;3;;
17949;SDS011;9100;48.700;9.316;2023-04-15T01:43:23;9;;;3;;
17949;SDS011;9100;48.700;9.316;2023-04-15T01:44:23;9;;;3;;
17949;SDS011;9100;48.700;9.316;2023-04-15T01:45:23;9;;;3;;
17949;SDS011;9100;48.700;9.316;2023-04-15T01:46:23;9;;;3;;
17949;SDS011;9100;48.700;9.316;2023-04-15T01:47:23;9;;;3;;
17949;SDS011;9100;48.700;9.316;2023-04-15T01:47:49;4.3;;;2.8;;
17949;SDS011;9100;48.700;9.316;2023-04-15T01:48:23;4.3;;;2.8;;
17949;SDS011;9100;48.700;9.316;2023-04-15T01:49:23;4.3;;;2.8;;
17949;SDS011;9100;48.700;9.316;2023-04-15T01:50:22;4.3;;;2.8;;
17949;SDS011;9100;48.700;9.316;2023-04-15T01:51:23;4.3;;;2.8;;
17949;SDS011;9100;48.700;9.316;2023-04-15T01:52:23;4.3;;;2.8;;
17949;SDS011;9100;48.700;9.316;2023-04-15T01:52:49;3.4;;;2.9;;
17949;SDS011;9100;48.700;9.316;2023-04-15T01:53:23;3.4;;;2.9;;
17949;SDS011;9100;48.700;9.316;2023-04-15T01:54:23;3.4;;;2.9;;
17949;SDS011;9100;48.700;9.316;2023-04-15T01:55:23;3.4;;;2.9;;
17949;SDS011;9100;48.700;9.316;2023-04-15T01:56:23;3.4;;;2.9;;
17949;SDS011;9100;48.700;9.316;2023-04-15T01:57:23;3.4;;;2.9;;
17949;SDS011;9100;48.700;9.316;2023-04-15T01:57:49;4.2;;;3.2;;
17949;SDS011;9100;48.700;9.316;2023-04-15T01:58:23;4.2;;;3.2;;
17949;SDS011;9100;48.700;9.316;2023-04-15T01:59:23;4.2;;;3.2;;
17949;SDS011;9100;48.700;9.316;2023-04-15T02:00:23;4.2;;;3.2;;
17949;SDS011;9100;48.700;9.316;2023-04-15T02:01:22;4.2;;;3.2;;
17949;SDS011;9100;48.700;9.316;2023-04-15T02:02:23;4.2;;;3.2;;
17949;SDS011;9100;48.700;9.316;2023-04-15T02:02:50;4.4;;;3.2;;
17949;SDS011;9100;48.700;9.316;2023-04-15T02:03:23;4.4;;;3.2;;
17949;SDS011;9100;48.700;9.316;2023-04-15T02:04:23;4.4;;;3.2;;
17949;SDS011;9100;48.700;9.316;2023-04-15T02:05:22;4.4;;;3.2;;
17949;SDS011;9100;48.700;9.316;2023-04-15T02:06:23;4.4;;;3.2;;
17949;SDS011;9100;48.700;9.316;2023-04-15T02:07:23;4.4;;;3.2;;
17949;SDS011;9100;48.700;9.316;2023-04-15T02:07:50;3.4;;;3;;
17949;SDS011;9100;48.700;9.316;2023-04-15T02:08:23;3.4;;;3;;
17949;SDS011;9100;48.700;9.316;2023-04-15T02:09:23;3.4;;;3;;
17949;SDS011;9100;48.700;9.316;2023-04-15T02:10:23;3.4;;;3;;
17949;SDS011;9100;48.700;9.316;2023-04-15T02:11:23;3.4;;;3;;
17949;SDS011;9100;48.700;9.316;2023-04-15T02:12:23;3.4;;;3;;
17949;SDS011;9100;48.700;9.316;2023-04-15T02:12:50;4.6;;;3.3;;
17949;SDS011;9100;48.700;9.316;2023-04-15T02:13:23;4.6;;;3.3;;
17949;SDS011;9100;48.700;9.316;2023-04-15T02:14:23;4.6;;;3.3;;
17949;SDS011;9100;48.700;9.316;2023-04-15T02:15:23;4.6;;;3.3;;
17949;SDS011;9100;48.700;9.316;2023-04-15T02:16:23;4.6;;;3.3;;
17949;SDS011;9100;48.700;9.316;2023-04-15T02:17:23;4.6;;;3.3;;
17949;SDS011;9100;48.700;9.316;2023-04-15T02:17:49;3.4;;;3.1;;
17949;SDS011;9100;48.700;9.316;2023-04-15T02:18:23;3.4;;;3.1;;
17949;SDS011;9100;48.700;9.316;2023-04-15T02:19:23;3.4;;;3.1;;
17949;SDS011;9100;48.700;9.316;2023-04-15T02:20:23;3.4;;;3.1;;
17949;SDS011;9100;48.700;9.316;2023-04-15T02:21:24;3.4;;;3.1;;
17949;SDS011;9100;48.700;9.316;2023-04-15T02:22:23;3.4;;;3.1;;
17949;SDS011;9100;48.700;9.316;2023-04-15T02:22:49;4;;;3.6;;
17949;SDS011;9100;48.700;9.316;2023-04-15T02:23:23;4;;;3.6;;
17949;SDS011;9100;48.700;9.316;2023-04-15T02:24:23;4;;;3.6;;
17949;SDS011;9100;48.700;9.316;2023-04-15T02:25:23;4;;;3.6;;
17949;SDS011;9100;48.700;9.316;2023-04-15T02:26:23;4;;;3.6;;
17949;SDS011;9100;48.700;9.316;2023-04-15T02:27:23;4;;;3.6;;
17949;SDS011;9100;48.700;9.316;2023-04-15T02:27:50;3.2;;;3;;
17949;SDS011;9100;48.700;9.316;2023-04-15T02:28:23;3.2;;;3;;
17949;SDS011;9100;48.700;9.316;2023-04-15T02:29:23;3.2;;;3;;
17949;SDS011;9100;48.700;9.316;2023-04-15T02:30:23;3.2;;;3;;
17949;SDS011;9100;48.700;9.316;2023-04-15T02:31:23;3.2;;;3;;
17949;SDS011;9100;48.700;9.316;2023-04-15T02:32:23;3.2;;;3;;
17949;SDS011;9100;48.700;9.316;2023-04-15T02:32:50;5.1;;;3.3;;
17949;SDS011;9100;48.700;9.316;2023-04-15T02:33:23;5.1;;;3.3;;
17949;SDS011;9100;48.700;9.316;2023-04-15T02:34:23;5.1;;;3.3;;
17949;SDS011;9100;48.700;9.316;2023-04-15T02:35:23;5.1;;;3.3;;
17949;SDS011;9100;48.700;9.316;2023-04-15T02:36:23;5.1;;;3.3;;
17949;SDS011;9100;48.700;9.316;2023-04-15T02:37:23;5.1;;;3.3;;
17949;SDS011;9100;48.700;9.316;2023-04-15T02:37:50;5.1;;;3.6;;
17949;SDS011;9100;48.700;9.316;2023-04-15T02:38:23;5.1;;;3.6;;
17949;SDS011;9100;48.700;9.316;2023-04-15T02:39:23;5.1;;;3.6;;
17949;SDS011;9100;48.700;9.316;2023-04-15T02:40:23;5.1;;;3.6;;
17949;SDS011;9100;48.700;9.316;2023-04-15T02:41:23;5.1;;;3.6;;
17949;SDS011;9100;48.700;9.316;2023-04-15T02:42:23;5.1;;;3.6;;
17949;SDS011;9100;48.700;9.316;2023-04-15T02:42:49;3.9;;;2.9;;
17949;SDS011;9100;48.700;9.316;2023-04-15T02:43:23;3.9;;;2.9;;
17949;SDS011;9100;48.700;9.316;2023-04-15T02:44:23;3.9;;;2.9;;
17949;SDS011;9100;48.700;9.316;2023-04-15T02:45:23;3.9;;;2.9;;
17949;SDS011;9100;48.700;9.316;2023-04-15T02:46:23;3.9;;;2.9;;
17949;SDS011;9100;48.700;9.316;2023-04-15T02:47:23;3.9;;;2.9;;
17949;SDS011;9100;48.700;9.316;2023-04-15T02:47:50;3.9;;;3.1;;
17949;SDS011;9100;48.700;9.316;2023-04-15T02:48:23;3.9;;;3.1;;
17949;SDS011;9100;48.700;9.316;2023-04-15T02:49:23;3.9;;;3.1;;
17949;SDS011;9100;48.700;9.316;2023-04-15T02:50:23;3.9;;;3.1;;
17949;SDS011;9100;48.700;9.316;2023-04-15T02:51:23;3.9;;;3.1;;
17949;SDS011;9100;48.700;9.316;2023-04-15T02:52:23;3.9;;;3.1;;
17949;SDS011;9100;48.700;9.316;2023-04-15T02:52:49;5.5;;;3.6;;
17949;SDS011;9100;48.700;9.316;2023-04-15T02:53:23;5.5;;;3.6;;
17949;SDS011;9100;48.700;9.316;2023-04-15T02:54:23;5.5;;;3.6;;
17949;SDS011;9100;48.700;9.316;2023-04-15T02:55:23;5.5;;;3.6;;
17949;SDS011;9100;48.700;9.316;2023-04-15T02:56:23;5.5;;;3.6;;
17949;SDS011;9100;48.700;9.316;2023-04-15T02:57:23;5.5;;;3.6;;
17949;SDS011;9100;48.700;9.316;2023-04-15T02:57:49;4.2;;;3.2;;
17949;SDS011;9100;48.700;9.316;2023-04-15T02:58:23;4.2;;;3.2;;
17949;SDS011;9100;48.700;9.316;2023-04-15T02:59:23;4.2;;;3.2;;
17949;SDS011;9100;48.700;9.316;2023-04-15T03:00:23;4.2;;;3.2;;
17949;SDS011;9100;48.700;9.316;2023-04-15T03:01:23;4.2;;;3.2;;
17949;SDS011;9100;48.700;9.316;2023-04-15T03:02:23;4.2;;;3.2;;
17949;SDS011;9100;48.700;9.316;2023-04-15T03:02:50;4;;;3.4;;
17949;SDS011;9100;48.700;9.316;2023-04-15T03:03:23;4;;;3.4;;
17949;SDS011;9100;48.700;9.316;2023-04-15T03:04:23;4;;;3.4;;
17949;SDS011;9100;48.700;9.316;2023-04-15T03:05:23;4;;;3.4;;
17949;SDS011;9100;48.700;9.316;2023-04-15T03:06:23;4;;;3.4;;
17949;SDS011;9100;48.700;9.316;2023-04-15T03:07:23;4;;;3.4;;
17949;SDS011;9100;48.700;9.316;2023-04-15T03:07:49;2.7;;;2.5;;
17949;SDS011;9100;48.700;9.316;2023-04-15T03:08:23;2.7;;;2.5;;
17949;SDS011;9100;48.700;9.316;2023-04-15T03:09:23;2.7;;;2.5;;
17949;SDS011;9100;48.700;9.316;2023-04-15T03:10:23;2.7;;;2.5;;
17949;SDS011;9100;48.700;9.316;2023-04-15T03:11:23;2.7;;;2.5;;
17949;SDS011;9100;48.700;9.316;2023-04-15T03:12:23;2.7;;;2.5;;
17949;SDS011;9100;48.700;9.316;2023-04-15T03:12:50;8.8;;;3.3;;
17949;SDS011;9100;48.700;9.316;2023-04-15T03:13:23;8.8;;;3.3;;
17949;SDS011;9100;48.700;9.316;2023-04-15T03:14:23;8.8;;;3.3;;
17949;SDS011;9100;48.700;9.316;2023-04-15T03:15:23;8.8;;;3.3;;
17949;SDS011;9100;48.700;9.316;2023-04-15T03:16:23;8.8;;;3.3;;
17949;SDS011;9100;48.700;9.316;2023-04-15T03:17:23;8.8;;;3.3;;
17949;SDS011;9100;48.700;9.316;2023-04-15T03:17:50;3.3;;;2.9;;
17949;SDS011;9100;48.700;9.316;2023-04-15T03:18:23;3.3;;;2.9;;
17949;SDS011;9100;48.700;9.316;2023-04-15T03:19:23;3.3;;;2.9;;
17949;SDS011;9100;48.700;9.316;2023-04-15T03:20:23;3.3;;;2.9;;
17949;SDS011;9100;48.700;9.316;2023-04-15T03:21:23;3.3;;;2.9;;
17949;SDS011;9100;48.700;9.316;2023-04-15T03:22:23;3.3;;;2.9;;
17949;SDS011;9100;48.700;9.316;2023-04-15T03:22:49;3.5;;;3.2;;
17949;SDS011;9100;48.700;9.316;2023-04-15T03:23:23;3.5;;;3.2;;
17949;SDS011;9100;48.700;9.316;2023-04-15T03:24:23;3.5;;;3.2;;
17949;SDS011;9100;48.700;9.316;2023-04-15T03:25:23;3.5;;;3.2;;
17949;SDS011;9100;48.700;9.316;2023-04-15T03:26:23;3.5;;;3.2;;
17949;SDS011;9100;48.700;9.316;2023-04-15T03:27:23;3.5;;;3.2;;
17949;SDS011;9100;48.700;9.316;2023-04-15T03:27:49;3.5;;;3.2;;
17949;SDS011;9100;48.700;9.316;2023-04-15T03:28:23;3.5;;;3.2;;
17949;SDS011;9100;48.700;9.316;2023-04-15T03:29:23;3.5;;;3.2;;
17949;SDS011;9100;48.700;9.316;2023-04-15T03:30:23;3.5;;;3.2;;
17949;SDS011;9100;48.700;9.316;2023-04-15T03:31:23;3.5;;;3.2;;
17949;SDS011;9100;48.700;9.316;2023-04-15T03:32:23;3.5;;;3.2;;
17949;SDS011;9100;48.700;9.316;2023-04-15T03:32:49;3.4;;;3.1;;
17949;SDS011;9100;48.700;9.316;2023-04-15T03:33:23;3.4;;;3.1;;
17949;SDS011;9100;48.700;9.316;2023-04-15T03:34:23;3.4;;;3.1;;
17949;SDS011;9100;48.700;9.316;2023-04-15T03:35:23;3.4;;;3.1;;
17949;SDS011;9100;48.700;9.316;2023-04-15T03:36:23;3.4;;;3.1;;
17949;SDS011;9100;48.700;9.316;2023-04-15T03:37:23;3.4;;;3.1;;
17949;SDS011;9100;48.700;9.316;2023-04-15T03:37:49;4.1;;;2.9;;
17949;SDS011;9100;48.700;9.316;2023-04-15T03:38:23;4.1;;;2.9;;
17949;SDS011;9100;48.700;9.316;2023-04-15T03:39:23;4.1;;;2.9;;
17949;SDS011;9100;48.700;9.316;2023-04-15T03:40:23;4.1;;;2.9;;
17949;SDS011;9100;48.700;9.316;2023-04-15T03:41:23;4.1;;;2.9;;
17949;SDS011;9100;48.700;9.316;2023-04-15T03:42:23;4.1;;;2.9;;
17949;SDS011;9100;48.700;9.316;2023-04-15T03:42:49;3;;;2.8;;
17949;SDS011;9100;48.700;9.316;2023-04-15T03:43:23;3;;;2.8;;
17949;SDS011;9100;48.700;9.316;2023-04-15T03:44:23;3;;;2.8;;
17949;SDS011;9100;48.700;9.316;2023-04-15T03:45:24;3;;;2.8;;
17949;SDS011;9100;48.700;9.316;2023-04-15T03:46:23;3;;;2.8;;
17949;SDS011;9100;48.700;9.316;2023-04-15T03:47:23;3;;;2.8;;
17949;SDS011;9100;48.700;9.316;2023-04-15T03:47:49;3.6;;;3.3;;
17949;SDS011;9100;48.700;9.316;2023-04-15T03:48:23;3.6;;;3.3;;
17949;SDS011;9100;48.700;9.316;2023-04-15T03:49:23;3.6;;;3.3;;
17949;SDS011;9100;48.700;9.316;2023-04-15T03:50:23;3.6;;;3.3;;
17949;SDS011;9100;48.700;9.316;2023-04-15T03:51:23;3.6;;;3.3;;
17949;SDS011;9100;48.700;9.316;2023-04-15T03:52:23;3.6;;;3.3;;
17949;SDS011;9100;48.700;9.316;2023-04-15T03:52:49;4.8;;;3.3;;
17949;SDS011;9100;48.700;9.316;2023-04-15T03:53:23;4.8;;;3.3;;
17949;SDS011;9100;48.700;9.316;2023-04-15T03:54:23;4.8;;;3.3;;
17949;SDS011;9100;48.700;9.316;2023-04-15T03:55:23;4.8;;;3.3;;
17949;SDS011;9100;48.700;9.316;2023-04-15T03:56:23;4.8;;;3.3;;
17949;SDS011;9100;48.700;9.316;2023-04-15T03:57:23;4.8;;;3.3;;
17949;SDS011;9100;48.700;9.316;2023-04-15T03:57:49;5.4;;;3.5;;
17949;SDS011;9100;48.700;9.316;2023-04-15T03:58:23;5.4;;;3.5;;
17949;SDS011;9100;48.700;9.316;2023-04-15T03:59:23;5.4;;;3.5;;
17949;SDS011;9100;48.700;9.316;2023-04-15T04:00:23;5.4;;;3.5;;
17949;SDS011;9100;48.700;9.316;2023-04-15T04:01:23;5.4;;;3.5;;
17949;SDS011;9100;48.700;9.316;2023-04-15T04:02:23;5.4;;;3.5;;
17949;SDS011;9100;48.700;9.316;2023-04-15T04:02:49;4.4;;;3.7;;
17949;SDS011;9100;48.700;9.316;2023-04-15T04:03:23;4.4;;;3.7;;
17949;SDS011;9100;48.700;9.316;2023-04-15T04:04:23;4.4;;;3.7;;
17949;SDS011;9100;48.700;9.316;2023-04-15T04:05:23;4.4;;;3.7;;
17949;SDS011;9100;48.700;9.316;2023-04-15T04:06:23;4.4;;;3.7;;
17949;SDS011;9100;48.700;9.316;2023-04-15T04:07:23;4.4;;;3.7;;
17949;SDS011;9100;48.700;9.316;2023-04-15T04:07:49;5.5;;;3.1;;
17949;SDS011;9100;48.700;9.316;2023-04-15T04:08:23;5.5;;;3.1;;
17949;SDS011;9100;48.700;9.316;2023-04-15T04:09:23;5.5;;;3.1;;
17949;SDS011;9100;48.700;9.316;2023-04-15T04:10:23;5.5;;;3.1;;
17949;SDS011;9100;48.700;9.316;2023-04-15T04:11:23;5.5;;;3.1;;
17949;SDS011;9100;48.700;9.316;2023-04-15T04:12:23;5.5;;;3.1;;
17949;SDS011;9100;48.700;9.316;2023-04-15T04:12:49;4.1;;;3.7;;
17949;SDS011;9100;48.700;9.316;2023-04-15T04:13:23;4.1;;;3.7;;
17949;SDS011;9100;48.700;9.316;2023-04-15T04:14:23;4.1;;;3.7;;
17949;SDS011;9100;48.700;9.316;2023-04-15T04:15:23;4.1;;;3.7;;
17949;SDS011;9100;48.700;9.316;2023-04-15T04:16:23;4.1;;;3.7;;
17949;SDS011;9100;48.700;9.316;2023-04-15T04:17:23;4.1;;;3.7;;
17949;SDS011;9100;48.700;9.316;2023-04-15T04:17:49;4.1;;;3.5;;
17949;SDS011;9100;48.700;9.316;2023-04-15T04:18:23;4.1;;;3.5;;
17949;SDS011;9100;48.700;9.316;2023-04-15T04:19:23;4.1;;;3.5;;
17949;SDS011;9100;48.700;9.316;2023-04-15T04:20:23;4.1;;;3.5;;
17949;SDS011;9100;48.700;9.316;2023-04-15T04:21:23;4.1;;;3.5;;
17949;SDS011;9100;48.700;9.316;2023-04-15T04:22:23;4.1;;;3.5;;
17949;SDS011;9100;48.700;9.316;2023-04-15T04:22:49;5.5;;;3.3;;
17949;SDS011;9100;48.700;9.316;2023-04-15T04:23:23;5.5;;;3.3;;
17949;SDS011;9100;48.700;9.316;2023-04-15T04:24:23;5.5;;;3.3;;
17949;SDS011;9100;48.700;9.316;2023-04-15T04:25:23;5.5;;;3.3;;
17949;SDS011;9100;48.700;9.316;2023-04-15T04:26:23;5.5;;;3.3;;
17949;SDS011;9100;48.700;9.316;2023-04-15T04:27:23;5.5;;;3.3;;
17949;SDS011;9100;48.700;9.316;2023-04-15T04:27:49;3.9;;;2.7;;
17949;SDS011;9100;48.700;9.316;2023-04-15T04:28:23;3.9;;;2.7;;
17949;SDS011;9100;48.700;9.316;2023-04-15T04:29:23;3.9;;;2.7;;
17949;SDS011;9100;48.700;9.316;2023-04-15T04:30:23;3.9;;;2.7;;
17949;SDS011;9100;48.700;9.316;2023-04-15T04:31:23;3.9;;;2.7;;
17949;SDS011;9100;48.700;9.316;2023-04-15T04:32:23;3.9;;;2.7;;
17949;SDS011;9100;48.700;9.316;2023-04-15T04:32:49;5.5;;;3.2;;
17949;SDS011;9100;48.700;9.316;2023-04-15T04:33:23;5.5;;;3.2;;
17949;SDS011;9100;48.700;9.316;2023-04-15T04:34:23;5.5;;;3.2;;
17949;SDS011;9100;48.700;9.316;2023-04-15T04:35:23;5.5;;;3.2;;
17949;SDS011;9100;48.700;9.316;2023-04-15T04:36:23;5.5;;;3.2;;
17949;SDS011;9100;48.700;9.316;2023-04-15T04:37:23;5.5;;;3.2;;
17949;SDS011;9100;48.700;9.316;2023-04-15T04:37:49;6.2;;;3.6;;
17949;SDS011;9100;48.700;9.316;2023-04-15T04:38:23;6.2;;;3.6;;
17949;SDS011;9100;48.700;9.316;2023-04-15T04:39:23;6.2;;;3.6;;
17949;SDS011;9100;48.700;9.316;2023-04-15T04:40:23;6.2;;;3.6;;
17949;SDS011;9100;48.700;9.316;2023-04-15T04:41:23;6.2;;;3.6;;
17949;SDS011;9100;48.700;9.316;2023-04-15T04:42:23;6.2;;;3.6;;
17949;SDS011;9100;48.700;9.316;2023-04-15T04:42:49;12.4;;;5;;
17949;SDS011;9100;48.700;9.316;2023-04-15T04:43:23;12.4;;;5;;
17949;SDS011;9100;48.700;9.316;2023-04-15T04:44:23;12.4;;;5;;
17949;SDS011;9100;48.700;9.316;2023-04-15T04:45:23;12.4;;;5;;
17949;SDS011;9100;48.700;9.316;2023-04-15T04:46:23;12.4;;;5;;
17949;SDS011;9100;48.700;9.316;2023-04-15T04:47:23;12.4;;;5;;
17949;SDS011;9100;48.700;9.316;2023-04-15T04:47:49;3.3;;;2.7;;
17949;SDS011;9100;48.700;9.316;2023-04-15T04:48:23;3.3;;;2.7;;
17949;SDS011;9100;48.700;9.316;2023-04-15T04:49:23;3.3;;;2.7;;
17949;SDS011;9100;48.700;9.316;2023-04-15T04:50:23;3.3;;;2.7;;
17949;SDS011;9100;48.700;9.316;2023-04-15T04:51:23;3.3;;;2.7;;
17949;SDS011;9100;48.700;9.316;2023-04-15T04:52:23;3.3;;;2.7;;
17949;SDS011;9100;48.700;9.316;2023-04-15T04:52:50;5.5;;;3.4;;
17949;SDS011;9100;48.700;9.316;2023-04-15T04:53:23;5.5;;;3.4;;
17949;SDS011;9100;48.700;9.316;2023-04-15T04:54:23;5.5;;;3.4;;
17949;SDS011;9100;48.700;9.316;2023-04-15T04:55:23;5.5;;;3.4;;
17949;SDS011;9100;48.700;9.316;2023-04-15T04:56:23;5.5;;;3.4;;
17949;SDS011;9100;48.700;9.316;2023-04-15T04:57:23;5.5;;;3.4;;
17949;SDS011;9100;48.700;9.316;2023-04-15T04:57:49;5.5;;;2.9;;
17949;SDS011;9100;48.700;9.316;2023-04-15T04:58:23;5.5;;;2.9;;
17949;SDS011;9100;48.700;9.316;2023-04-15T04:59:23;5.5;;;2.9;;
17949;SDS011;9100;48.700;9.316;2023-04-15T05:00:23;5.5;;;2.9;;
17949;SDS011;9100;48.700;9.316;2023-04-15T05:01:23;5.5;;;2.9;;
17949;SDS011;9100;48.700;9.316;2023-04-15T05:02:23;5.5;;;2.9;;
17949;SDS011;9100;48.700;9.316;2023-04-15T05:02:50;3.8;;;3.1;;
17949;SDS011;9100;48.700;9.316;2023-04-15T05:03:23;3.8;;;3.1;;
17949;SDS011;9100;48.700;9.316;2023-04-15T05:04:23;3.8;;;3.1;;
17949;SDS011;9100;48.700;9.316;2023-04-15T05:05:23;3.8;;;3.1;;
17949;SDS011;9100;48.700;9.316;2023-04-15T05:06:23;3.8;;;3.1;;
17949;SDS011;9100;48.700;9.316;2023-04-15T05:07:23;3.8;;;3.1;;
17949;SDS011;9100;48.700;9.316;2023-04-15T05:07:50;3.7;;;3.2;;
17949;SDS011;9100;48.700;9.316;2023-04-15T05:08:23;3.7;;;3.2;;
17949;SDS011;9100;48.700;9.316;2023-04-15T05:09:23;3.7;;;3.2;;
17949;SDS011;9100;48.700;9.316;2023-04-15T05:10:23;3.7;;;3.2;;
17949;SDS011;9100;48.700;9.316;2023-04-15T05:11:23;3.7;;;3.2;;
17949;SDS011;9100;48.700;9.316;2023-04-15T05:12:23;3.7;;;3.2;;
17949;SDS011;9100;48.700;9.316;2023-04-15T05:12:49;2.6;;;2.4;;
17949;SDS011;9100;48.700;9.316;2023-04-15T05:13:23;2.6;;;2.4;;
17949;SDS011;9100;48.700;9.316;2023-04-15T05:14:23;2.6;;;2.4;;
17949;SDS011;9100;48.700;9.316;2023-04-15T05:15:23;2.6;;;2.4;;
17949;SDS011;9100;48.700;9.316;2023-04-15T05:16:23;2.6;;;2.4;;
17949;SDS011;9100;48.700;9.316;2023-04-15T05:17:23;2.6;;;2.4;;